Time;durP1;ratioP1;P1;durP2;ratioP2;P2;SDS_P1;SDS_P2;PMS_P1;PMS_P2;Temp;Humidity;BMP_temperature;BMP_pressure;BME280_temperature;BME280_humidity;BME280_pressure;Samples;Min_cycle;Max_cycle;Signal;HPM_P1;HPM_P2
2021/01/18 00:02:21;;;;;;;67.53;21.97;;;;;;;-9.73;69.28;101040.97;1820811;78;21346;-56
2021/01/18 00:04:49;;;;;;;66.10;22.43;;;;;;;-9.67;69.59;101041.28;1820761;78;21011;-55
2021/01/18 00:07:16;;;;;;;64.87;21.27;;;;;;;-9.59;69.73;101037.39;1820758;78;21058;-55
2021/01/18 00:09:44;;;;;;;66.33;22.93;;;;;;;-9.53;69.87;101032.89;1820803;78;21023;-55
2021/01/18 00:12:13;;;;;;;62.47;22.50;;;;;;;-9.47;70.05;101034.53;1820847;78;21027;-55
2021/01/18 00:14:41;;;;;;;67.93;24.23;;;;;;;-9.45;70.09;101030.70;1820759;78;21366;-56
2021/01/18 00:17:08;;;;;;;68.77;23.63;;;;;;;-9.43;70.25;101032.96;1820685;78;21051;-56
2021/01/18 00:19:36;;;;;;;79.47;24.17;;;;;;;-9.43;70.52;101026.47;1820832;78;21055;-56
2021/01/18 00:22:03;;;;;;;65.57;23.50;;;;;;;-9.45;70.34;101023.81;1820721;78;21200;-55
2021/01/18 00:24:31;;;;;;;65.03;23.17;;;;;;;-9.45;70.70;101024.20;1820863;78;21113;-56
2021/01/18 00:26:58;;;;;;;65.53;21.47;;;;;;;-9.41;70.76;101020.94;1820742;78;21369;-56
2021/01/18 00:29:26;;;;;;;71.63;22.60;;;;;;;-9.41;70.62;101011.86;1820745;78;21534;-56
2021/01/18 00:31:53;;;;;;;67.03;21.77;;;;;;;-9.38;70.58;101013.34;1820685;78;21062;-56
2021/01/18 00:34:21;;;;;;;57.80;20.87;;;;;;;-9.35;70.88;101003.09;1820650;78;21141;-54
2021/01/18 00:36:50;;;;;;;57.43;19.23;;;;;;;-9.31;70.71;101001.13;1820152;78;21111;-55
2021/01/18 00:39:17;;;;;;;53.43;19.53;;;;;;;-9.29;70.45;101004.69;1815335;79;21165;-55
2021/01/18 00:41:46;;;;;;;62.83;19.37;;;;;;;-9.28;70.26;100997.38;1815259;79;21063;-55
2021/01/18 00:44:13;;;;;;;57.13;19.67;;;;;;;-9.26;70.18;101001.38;1815426;79;22334;-55
2021/01/18 00:46:46;;;;;;;59.53;19.60;;;;;;;-9.26;70.47;100990.55;1815392;79;21183;-55
2021/01/18 00:49:13;;;;;;;56.43;20.23;;;;;;;-9.22;70.59;101000.27;1815261;79;21111;-55
2021/01/18 00:51:41;;;;;;;54.73;19.37;;;;;;;-9.23;70.41;100998.50;1815393;79;21356;-55
2021/01/18 00:54:09;;;;;;;63.33;20.87;;;;;;;-9.21;70.45;100996.86;1815167;78;21155;-55
2021/01/18 00:56:38;;;;;;;53.50;18.03;;;;;;;-9.20;70.44;101002.96;1814388;79;21099;-55
2021/01/18 00:59:08;;;;;;;51.93;17.00;;;;;;;-9.17;70.68;101003.11;1815187;78;21060;-55
2021/01/18 01:01:43;;;;;;;58.03;18.50;;;;;;;-9.10;70.34;101001.70;1814968;79;21200;-56
2021/01/18 01:04:12;;;;;;;54.97;18.40;;;;;;;-9.11;69.69;101002.10;1786115;79;21204;-55
2021/01/18 01:06:39;;;;;;;52.60;18.50;;;;;;;-9.12;69.47;101009.84;1815179;79;21195;-54
2021/01/18 01:09:07;;;;;;;48.47;17.27;;;;;;;-9.13;69.56;101004.16;1815318;79;21004;-55
2021/01/18 01:11:34;;;;;;;48.20;17.60;;;;;;;-9.10;69.46;100999.11;1815246;79;21084;-55
2021/01/18 01:14:02;;;;;;;48.27;16.63;;;;;;;-9.03;69.58;100990.79;1760990;79;21155;-55
2021/01/18 01:16:33;;;;;;;50.73;17.03;;;;;;;-8.96;69.50;100987.66;1815165;79;23537;-55
2021/01/18 01:19:00;;;;;;;59.40;19.23;;;;;;;-8.91;69.33;100989.19;1815266;79;21146;-55
2021/01/18 01:21:32;;;;;;;54.97;18.97;;;;;;;-8.86;69.48;100994.62;1815159;78;21064;-55
2021/01/18 01:24:04;;;;;;;54.55;17.77;;;;;;;-8.79;69.58;100989.79;1815412;79;21112;-56
2021/01/18 01:26:32;;;;;;;51.77;17.97;;;;;;;-8.74;69.10;100991.28;1815142;79;21197;-54
2021/01/18 01:28:59;;;;;;;56.17;16.87;;;;;;;-8.72;68.92;100984.88;1815264;79;21336;-56
2021/01/18 01:31:27;;;;;;;59.63;18.47;;;;;;;-8.71;68.94;100984.96;1815203;79;21049;-55
2021/01/18 01:33:54;;;;;;;59.87;18.50;;;;;;;-8.69;68.95;100981.11;1815211;79;21052;-55
2021/01/18 01:36:22;;;;;;;52.00;18.07;;;;;;;-8.69;68.92;100978.12;1815158;79;21119;-56
2021/01/18 01:38:49;;;;;;;58.30;18.07;;;;;;;-8.67;69.20;100979.08;1820501;78;21129;-55
2021/01/18 01:41:16;;;;;;;42.60;17.00;;;;;;;-8.61;69.57;100980.17;1820867;78;21378;-56
2021/01/18 01:43:44;;;;;;;46.20;16.37;;;;;;;-8.56;69.41;100975.68;1820658;78;21181;-55
2021/01/18 01:46:14;;;;;;;51.30;17.27;;;;;;;-8.54;69.16;100970.53;1820730;78;21134;-56
2021/01/18 01:48:41;;;;;;;48.50;17.40;;;;;;;-8.55;69.22;100970.96;1820670;78;21118;-56
2021/01/18 01:51:09;;;;;;;50.17;15.70;;;;;;;-8.54;69.34;100970.14;1820732;78;21142;-55
2021/01/18 01:53:37;;;;;;;43.27;15.40;;;;;;;-8.51;69.56;100965.47;1820709;78;21685;-56
2021/01/18 01:56:05;;;;;;;44.40;16.43;;;;;;;-8.47;69.63;100967.38;1820800;78;21051;-55
2021/01/18 01:58:33;;;;;;;37.97;13.90;;;;;;;-8.44;69.54;100967.52;1820862;78;21093;-55
2021/01/18 02:01:00;;;;;;;36.20;14.53;;;;;;;-8.46;69.45;100963.96;1820947;78;21542;-55
2021/01/18 02:03:41;;;;;;;41.70;14.47;;;;;;;-8.46;69.68;100969.56;1820977;78;21046;-56
2021/01/18 02:06:09;;;;;;;39.33;14.50;;;;;;;-8.43;70.23;100965.40;1820788;78;21367;-55
2021/01/18 02:08:37;;;;;;;36.53;14.10;;;;;;;-8.41;70.83;100969.35;1820894;77;21110;-55
2021/01/18 02:11:05;;;;;;;38.00;14.23;;;;;;;-8.39;71.06;100963.41;1820790;78;21122;-55
2021/01/18 02:14:27;;;;;;;40.90;14.87;;;;;;;-8.38;71.10;100970.39;1820965;78;21483;-55
2021/01/18 02:17:03;;;;;;;42.13;14.07;;;;;;;-8.32;71.68;100968.88;1820966;77;21038;-56
2021/01/18 02:20:30;;;;;;;39.77;14.93;;;;;;;-8.30;72.35;100966.84;1820914;78;21360;-55
2021/01/18 02:23:32;;;;;;;33.20;13.13;;;;;;;-8.31;72.30;100965.06;1820977;78;21098;-55
2021/01/18 02:26:21;;;;;;;43.50;13.70;;;;;;;-8.25;72.60;100976.16;1873240;76;26303;-56
2021/01/18 02:28:57;;;;;;;41.60;13.93;;;;;;;-8.29;72.90;100978.12;1841052;78;21127;-55
2021/01/18 02:32:06;;;;;;;33.30;12.97;;;;;;;-8.29;73.14;100974.22;1841236;78;21441;-55
2021/01/18 02:35:13;;;;;;;38.87;13.63;;;;;;;-8.30;73.20;100967.23;1840959;78;21001;-55
2021/01/18 02:38:35;;;;;;;39.27;13.23;;;;;;;-8.30;73.47;100975.95;1833673;78;20996;-54
2021/01/18 02:41:16;;;;;;;37.13;13.07;;;;;;;-8.28;73.86;100976.91;1825026;78;20988;-56
2021/01/18 02:43:52;;;;;;;37.83;14.30;;;;;;;-8.30;73.97;100980.25;1824987;78;20924;-55
2021/01/18 02:46:20;;;;;;;38.73;14.07;;;;;;;-8.33;74.13;100981.02;1805392;78;21373;-55
2021/01/18 02:48:48;;;;;;;37.17;14.43;;;;;;;-8.29;74.38;100980.33;1824973;77;21042;-55
2021/01/18 02:51:18;;;;;;;44.33;14.53;;;;;;;-8.23;74.41;100987.53;1824992;78;20877;-55
2021/01/18 02:53:57;;;;;;;37.63;13.97;;;;;;;-8.18;74.48;100980.81;1825046;78;21607;-56
2021/01/18 02:56:26;;;;;;;38.47;14.20;;;;;;;-8.12;74.27;100975.87;1824915;78;20936;-55
2021/01/18 02:58:55;;;;;;;38.40;13.97;;;;;;;-8.13;74.20;100976.70;1825105;78;21480;-55
2021/01/18 03:02:19;;;;;;;36.03;13.70;;;;;;;-8.11;74.19;100975.05;1824888;78;21582;-54
2021/01/18 03:05:15;;;;;;;35.33;12.70;;;;;;;-8.10;74.26;100982.46;1824761;78;21065;-55
2021/01/18 03:08:01;;;;;;;35.13;12.97;;;;;;;-8.11;74.30;100972.45;1825133;78;21444;-55
2021/01/18 03:10:40;;;;;;;40.40;13.53;;;;;;;-8.08;74.55;100975.19;1824967;78;21150;-56
2021/01/18 03:13:19;;;;;;;37.03;12.60;;;;;;;-8.02;74.73;100976.30;1824923;78;21198;-55
2021/01/18 03:15:49;;;;;;;32.97;12.17;;;;;;;-8.00;74.62;100974.66;1825104;78;21984;-55
2021/01/18 03:18:20;;;;;;;29.97;12.10;;;;;;;-8.00;74.42;100976.83;1824608;78;20933;-56
2021/01/18 03:20:47;;;;;;;39.43;12.40;;;;;;;-7.99;74.38;100978.61;1824959;78;20904;-55
2021/01/18 03:23:15;;;;;;;31.83;11.83;;;;;;;-7.98;74.37;100983.42;1824926;78;21031;-55
2021/01/18 03:25:56;;;;;;;32.97;12.47;;;;;;;-7.97;74.44;100978.69;1829154;78;21687;-55
2021/01/18 03:28:24;;;;;;;32.87;12.00;;;;;;;-7.98;74.42;100984.72;1831017;78;21593;-55
2021/01/18 03:30:52;;;;;;;27.97;11.97;;;;;;;-7.99;74.42;100986.84;1831082;77;21105;-55
2021/01/18 03:33:24;;;;;;;29.70;11.53;;;;;;;-7.99;74.35;100990.75;1830922;77;21119;-55
2021/01/18 03:35:49;;;;;;;34.47;12.77;;;;;;;-8.05;74.36;100982.25;1830708;77;21173;-55
2021/01/18 03:38:17;;;;;;;34.50;12.97;;;;;;;-8.03;74.51;100991.02;1831703;78;22612;-55
2021/01/18 03:40:48;;;;;;;37.37;13.33;;;;;;;-7.99;74.52;100987.72;1832112;78;20953;-55
2021/01/18 03:43:16;;;;;;;34.70;12.67;;;;;;;-7.96;74.57;100985.67;1832125;77;20933;-56
2021/01/18 03:45:44;;;;;;;35.50;12.50;;;;;;;-7.94;74.52;100990.53;1816174;78;21468;-56
2021/01/18 03:48:12;;;;;;;35.97;13.57;;;;;;;-7.94;74.38;100995.74;1832219;78;21103;-56
2021/01/18 03:50:42;;;;;;;32.00;13.57;;;;;;;-8.02;74.17;101004.50;1832116;78;21186;-56
2021/01/18 03:53:10;;;;;;;37.33;13.10;;;;;;;-8.08;74.33;100998.61;1832168;78;20985;-56
2021/01/18 03:55:38;;;;;;;35.43;13.83;;;;;;;-8.09;74.55;101005.94;1832096;77;21056;-56
2021/01/18 03:58:06;;;;;;;40.23;13.77;;;;;;;-8.14;74.51;101000.94;1832197;78;21067;-56
2021/01/18 04:00:35;;;;;;;40.37;14.67;;;;;;;-8.19;74.67;101001.16;1832175;78;21048;-56
2021/01/18 04:03:03;;;;;;;40.73;14.07;;;;;;;-8.26;74.75;101004.30;1832261;78;21186;-55
2021/01/18 04:05:30;;;;;;;36.63;14.50;;;;;;;-8.30;75.01;100998.45;1832095;78;21032;-56
2021/01/18 04:07:58;;;;;;;40.73;14.33;;;;;;;-8.33;75.04;101009.63;1832095;78;21080;-56
2021/01/18 04:10:28;;;;;;;36.83;14.60;;;;;;;-8.38;75.24;101009.41;1832174;78;20977;-55
2021/01/18 04:12:56;;;;;;;42.13;16.50;;;;;;;-8.42;75.42;101011.39;1832140;78;20961;-56
2021/01/18 04:15:25;;;;;;;46.67;16.90;;;;;;;-8.42;75.60;101010.09;1832258;78;21356;-55
2021/01/18 04:17:55;;;;;;;40.37;16.10;;;;;;;-8.42;75.85;101007.48;1832075;78;20973;-55
2021/01/18 04:20:22;;;;;;;44.87;16.30;;;;;;;-8.44;75.87;101006.92;1832184;78;20977;-55
2021/01/18 04:22:53;;;;;;;44.80;15.93;;;;;;;-8.50;75.98;101006.29;1832054;77;21139;-55
2021/01/18 04:25:23;;;;;;;48.00;16.03;;;;;;;-8.53;76.04;101012.62;1835508;77;21532;-55
2021/01/18 04:27:54;;;;;;;44.10;16.97;;;;;;;-8.54;76.20;101013.44;1840317;78;21386;-55
2021/01/18 04:30:23;;;;;;;43.37;17.07;;;;;;;-8.55;76.32;101015.16;1754623;81;21183;-55
2021/01/18 04:32:59;;;;;;;45.50;16.73;;;;;;;-8.53;76.41;101023.02;1777719;80;21121;-55
2021/01/18 04:35:27;;;;;;;45.03;16.70;;;;;;;-8.54;76.48;101026.44;1789592;80;21047;-55
2021/01/18 04:37:55;;;;;;;44.43;14.43;;;;;;;-8.53;76.61;101025.62;1765231;80;21061;-55
2021/01/18 04:40:26;;;;;;;40.17;16.70;;;;;;;-8.54;76.71;101023.84;1782399;80;21390;-55
2021/01/18 04:42:54;;;;;;;45.10;16.30;;;;;;;-8.59;76.63;101024.04;1781663;80;21119;-56
2021/01/18 04:45:23;;;;;;;47.63;17.27;;;;;;;-8.59;76.77;101031.45;1727374;81;21113;-56
2021/01/18 04:47:52;;;;;;;42.90;17.03;;;;;;;-8.56;76.91;101029.38;1776963;80;21194;-57
2021/01/18 04:50:23;;;;;;;50.83;16.57;;;;;;;-8.54;76.91;101034.24;1756817;81;21562;-56
2021/01/18 04:52:55;;;;;;;42.97;15.70;;;;;;;-8.55;76.96;101044.16;1777088;80;22188;-56
2021/01/18 04:55:34;;;;;;;43.37;16.40;;;;;;;-8.58;76.92;101039.73;1776354;80;21154;-56
2021/01/18 04:58:14;;;;;;;51.70;17.97;;;;;;;-8.52;77.11;101040.02;1889500;76;26256;-55
2021/01/18 05:00:51;;;;;;;45.73;16.30;;;;;;;-8.59;77.21;101042.23;1860474;77;20968;-55
2021/01/18 05:03:25;;;;;;;46.07;17.30;;;;;;;-8.60;77.27;101041.77;1860491;77;22250;-56
2021/01/18 05:06:13;;;;;;;44.77;16.77;;;;;;;-8.57;77.35;101041.51;1860390;77;20985;-55
2021/01/18 05:09:21;;;;;;;42.53;17.67;;;;;;;-8.56;77.32;101052.78;1860504;77;21042;-55
2021/01/18 05:11:50;;;;;;;46.00;16.90;;;;;;;-8.60;77.41;101056.06;1860391;77;20866;-56
2021/01/18 05:14:17;;;;;;;43.87;17.23;;;;;;;-8.60;77.63;101058.66;1860464;77;20905;-55
2021/01/18 05:16:57;;;;;;;49.53;16.87;;;;;;;-8.61;77.71;101049.08;1860351;77;21364;-56
2021/01/18 05:19:26;;;;;;;48.47;16.83;;;;;;;-8.62;77.76;101057.70;1860411;77;20980;-55
2021/01/18 05:21:54;;;;;;;41.17;16.23;;;;;;;-8.65;77.76;101048.94;1860394;77;21126;-55
2021/01/18 05:24:22;;;;;;;43.40;16.70;;;;;;;-8.67;77.68;101054.87;1860509;77;21056;-56
2021/01/18 05:27:08;;;;;;;45.00;16.63;;;;;;;-8.71;77.66;101063.34;1860422;77;21047;-56
2021/01/18 05:29:37;;;;;;;44.60;16.97;;;;;;;-8.75;77.62;101067.48;1860413;77;21426;-56
2021/01/18 05:32:22;;;;;;;47.83;17.00;;;;;;;-8.78;77.65;101069.95;1860445;77;21550;-55
2021/01/18 05:34:53;;;;;;;52.80;18.07;;;;;;;-8.79;77.73;101072.06;1860330;77;21040;-55
2021/01/18 05:37:20;;;;;;;48.97;17.63;;;;;;;-8.83;77.66;101071.05;1848984;77;21065;-55
2021/01/18 05:39:48;;;;;;;52.17;18.37;;;;;;;-8.86;77.74;101068.69;1824862;78;21071;-56
2021/01/18 05:42:20;;;;;;;45.73;16.97;;;;;;;-8.90;77.74;101074.56;1824969;78;21374;-56
2021/01/18 05:44:48;;;;;;;56.50;17.60;;;;;;;-8.92;77.87;101074.47;1824868;78;21070;-54
2021/01/18 05:47:15;;;;;;;50.90;17.37;;;;;;;-8.92;77.90;101080.58;1824913;78;21535;-56
2021/01/18 05:49:49;;;;;;;37.40;15.13;;;;;;;-8.94;77.97;101079.61;1824866;78;21103;-55
2021/01/18 05:52:29;;;;;;;47.60;16.90;;;;;;;-8.96;77.94;101085.11;1824928;78;21078;-56
2021/01/18 05:55:18;;;;;;;42.57;15.87;;;;;;;-8.99;77.97;101081.06;1825034;78;21332;-56
2021/01/18 05:57:50;;;;;;;42.37;14.83;;;;;;;-9.01;78.02;101078.80;1824612;77;21071;-56
2021/01/18 06:00:27;;;;;;;39.67;15.10;;;;;;;-9.04;78.06;101086.45;1825074;77;21149;-55
2021/01/18 06:02:55;;;;;;;46.33;15.07;;;;;;;-9.07;78.13;101087.59;1824856;78;21134;-55
2021/01/18 06:05:28;;;;;;;44.77;15.17;;;;;;;-9.11;78.07;101090.86;1824945;77;20987;-55
2021/01/18 06:08:07;;;;;;;42.23;15.73;;;;;;;-9.16;78.15;101091.91;1824689;77;21522;-55
2021/01/18 06:10:35;;;;;;;33.97;14.40;;;;;;;-9.18;78.24;101094.84;1824263;78;21110;-55
2021/01/18 06:13:03;;;;;;;42.40;15.93;;;;;;;-9.20;78.17;101097.78;1824411;78;21046;-56
2021/01/18 06:15:31;;;;;;;37.43;14.43;;;;;;;-9.24;78.08;101104.51;1824300;78;21154;-54
2021/01/18 06:17:59;;;;;;;38.90;14.97;;;;;;;-9.25;77.99;101105.75;1824368;77;20908;-57
2021/01/18 06:20:28;;;;;;;46.17;16.00;;;;;;;-9.27;77.90;101107.38;1824216;78;21334;-56
2021/01/18 06:22:58;;;;;;;45.63;14.80;;;;;;;-9.30;77.85;101101.61;1824296;78;20932;-54
2021/01/18 06:25:35;;;;;;;38.47;14.27;;;;;;;-9.31;77.82;101110.60;1824238;78;21114;-57
2021/01/18 06:28:05;;;;;;;44.73;15.67;;;;;;;-9.34;77.76;101116.55;1824327;78;20995;-56
2021/01/18 06:30:33;;;;;;;39.30;14.90;;;;;;;-9.38;77.75;101119.81;1824289;78;21091;-56
2021/01/18 06:33:12;;;;;;;38.23;14.73;;;;;;;-9.40;77.68;101126.59;1824282;78;21655;-56
2021/01/18 06:35:40;;;;;;;38.00;15.67;;;;;;;-9.44;77.71;101125.95;1805836;78;21099;-56
2021/01/18 06:38:08;;;;;;;39.20;15.53;;;;;;;-9.46;77.62;101123.69;1827588;78;21110;-56
2021/01/18 06:40:39;;;;;;;41.90;15.67;;;;;;;-9.49;77.61;101130.93;1829510;78;21110;-56
2021/01/18 06:43:10;;;;;;;38.83;13.90;;;;;;;-9.53;77.50;101125.06;1829473;78;21027;-56
2021/01/18 06:45:41;;;;;;;35.50;13.13;;;;;;;-9.58;77.36;101131.33;1829547;78;21146;-56
2021/01/18 06:48:10;;;;;;;43.73;16.07;;;;;;;-9.62;77.35;101121.99;1829417;78;20897;-56
2021/01/18 06:50:39;;;;;;;35.43;12.63;;;;;;;-9.67;77.24;101125.63;1829517;78;21055;-55
2021/01/18 06:53:25;;;;;;;37.47;14.67;;;;;;;-9.70;77.23;101130.66;1829587;78;21043;-57
2021/01/18 06:56:25;;;;;;;39.80;13.90;;;;;;;-9.72;77.25;101133.59;1829584;78;21139;-56
2021/01/18 06:59:42;;;;;;;40.23;13.80;;;;;;;-9.71;77.19;101136.67;1829604;78;21371;-56
2021/01/18 07:02:18;;;;;;;36.30;13.10;;;;;;;-9.74;77.03;101134.79;1829440;78;20885;-56
2021/01/18 07:04:47;;;;;;;39.47;14.37;;;;;;;-9.72;77.04;101137.48;1829489;78;21090;-56
2021/01/18 07:07:29;;;;;;;45.53;15.07;;;;;;;-9.69;77.03;101136.34;1829596;78;21546;-56
2021/01/18 07:10:01;;;;;;;35.97;14.40;;;;;;;-9.67;77.07;101139.91;1829493;78;21007;-55
2021/01/18 07:12:31;;;;;;;42.23;15.10;;;;;;;-9.58;77.10;101145.61;1829546;78;21321;-55
2021/01/18 07:15:10;;;;;;;46.23;16.60;;;;;;;-9.50;77.05;101143.00;1829401;78;21067;-56
2021/01/18 07:17:53;;;;;;;46.17;15.87;;;;;;;-9.41;76.98;101151.69;1829566;78;21170;-56
2021/01/18 07:20:27;;;;;;;41.77;14.97;;;;;;;-9.37;76.93;101155.34;1829437;78;20932;-57
2021/01/18 07:23:14;;;;;;;48.30;15.10;;;;;;;-9.34;77.07;101156.80;1827906;78;21102;-56
2021/01/18 07:25:48;;;;;;;45.37;14.67;;;;;;;-9.23;77.14;101164.73;1829515;78;21384;-56
2021/01/18 07:28:19;;;;;;;50.10;16.60;;;;;;;-9.15;77.29;101174.66;1829155;78;20971;-56
2021/01/18 07:30:49;;;;;;;57.57;19.53;;;;;;;-9.11;77.40;101173.57;1829413;78;20924;-55
2021/01/18 07:33:20;;;;;;;53.27;19.13;;;;;;;-9.05;77.56;101178.63;1829433;78;21042;-57
2021/01/18 07:35:47;;;;;;;50.90;19.10;;;;;;;-9.00;77.90;101178.03;1829508;78;21026;-56
2021/01/18 07:38:17;;;;;;;52.43;18.37;;;;;;;-8.99;78.12;101185.00;1821499;77;21696;-57
2021/01/18 07:41:10;;;;;;;48.03;17.07;;;;;;;-8.98;78.17;101182.02;1859780;77;21525;-56
2021/01/18 07:43:43;;;;;;;48.17;18.53;;;;;;;-8.98;78.29;101181.59;1859702;77;21058;-57
2021/01/18 07:46:33;;;;;;;48.97;14.83;;;;;;;-8.99;78.32;101179.81;1846224;76;21130;-57
2021/01/18 07:49:25;;;;;;;60.17;20.50;;;;;;;-9.00;78.24;101181.05;1844064;77;20920;-60
2021/01/18 07:52:21;;;;;;;49.07;17.03;;;;;;;-9.04;78.17;101186.48;1772317;80;21684;-60
2021/01/18 07:54:49;;;;;;;51.40;16.63;;;;;;;-8.98;78.52;101189.39;1787366;80;21150;-61
2021/01/18 07:57:32;;;;;;;46.93;15.87;;;;;;;-8.80;78.63;101188.55;1788020;80;21058;-62
2021/01/18 08:00:27;;;;;;;46.50;15.60;;;;;;;-8.65;78.14;101186.73;1778111;80;21498;-63
2021/01/18 08:02:56;;;;;;;57.83;15.90;;;;;;;-8.69;76.47;101193.91;1790054;80;21145;-60
2021/01/18 08:05:31;;;;;;;31.77;10.13;;;;;;;-8.86;76.12;101202.55;1790441;80;21370;-60
2021/01/18 08:08:19;;;;;;;33.23;13.37;;;;;;;-9.02;75.95;101197.84;1777869;80;21534;-60
2021/01/18 08:11:06;;;;;;;34.33;8.77;;;;;;;-9.15;76.29;101199.34;1790548;80;20936;-61
2021/01/18 08:13:53;;;;;;;33.73;12.63;;;;;;;-9.16;76.70;101211.84;1790600;80;21118;-60
2021/01/18 08:16:40;;;;;;;30.73;11.20;;;;;;;-9.13;76.60;101206.80;1740878;79;21062;-60
2021/01/18 08:19:26;;;;;;;33.83;12.13;;;;;;;-9.19;76.62;101210.34;1777932;80;21195;-60
2021/01/18 08:21:57;;;;;;;34.40;12.40;;;;;;;-9.19;76.73;101218.14;1790482;80;20991;-61
2021/01/18 08:24:35;;;;;;;37.87;13.23;;;;;;;-9.29;75.80;101211.56;1790476;80;21012;-60
2021/01/18 08:27:06;;;;;;;35.50;11.63;;;;;;;-9.37;76.55;101218.98;1763823;80;21122;-61
2021/01/18 08:29:39;;;;;;;35.53;13.90;;;;;;;-9.28;76.89;101225.07;1790388;79;21110;-60
2021/01/18 08:32:33;;;;;;;;;;;;;;;-9.20;76.22;101226.36;1755371;80;22617;-60
2021/01/18 08:35:21;;;;;;;37.07;12.93;;;;;;;-9.12;75.70;101230.25;1777940;80;20215;-61
2021/01/18 08:38:06;;;;;;;45.10;13.33;;;;;;;-9.04;75.42;101235.85;1775029;80;21126;-60
2021/01/18 08:40:48;;;;;;;41.40;13.80;;;;;;;-9.17;73.99;101234.70;1761000;81;21091;-61
2021/01/18 08:43:19;;;;;;;40.97;15.30;;;;;;;-9.24;74.03;101238.28;1765254;81;20936;-60
2021/01/18 08:45:53;;;;;;;34.33;13.30;;;;;;;-9.14;74.44;101231.88;1782158;79;22311;-60
2021/01/18 08:48:22;;;;;;;36.23;12.93;;;;;;;-9.00;74.44;101228.70;1782786;79;21144;-61
2021/01/18 08:50:55;;;;;;;39.70;13.93;;;;;;;-8.86;74.05;101227.23;1782759;79;21172;-60
2021/01/18 08:53:45;;;;;;;33.00;12.33;;;;;;;-8.81;73.37;101233.56;1781175;79;21580;-61
2021/01/18 08:56:29;;;;;;;37.93;12.53;;;;;;;-8.79;73.35;101231.92;1788422;79;21117;-61
2021/01/18 08:58:57;;;;;;;34.87;10.53;;;;;;;-8.72;73.37;101230.16;1767813;81;21208;-61
2021/01/18 09:01:30;;;;;;;30.60;10.77;;;;;;;-8.61;73.22;101227.19;1770342;81;21137;-61
2021/01/18 09:04:05;;;;;;;34.30;11.27;;;;;;;-8.59;72.46;101226.86;1770445;81;21084;-61
2021/01/18 09:06:34;;;;;;;26.83;10.37;;;;;;;-8.73;71.99;101234.86;1770481;81;20998;-61
2021/01/18 09:09:05;;;;;;;35.73;13.00;;;;;;;-8.89;71.75;101227.08;1770381;81;21149;-61
2021/01/18 09:11:34;;;;;;;36.37;12.53;;;;;;;-9.07;72.36;101226.60;1770409;81;21205;-60
2021/01/18 09:14:04;;;;;;;28.13;9.73;;;;;;;-9.15;72.82;101224.02;1770487;81;21628;-61
2021/01/18 09:16:31;;;;;;;29.20;11.17;;;;;;;-9.16;73.01;101231.33;1740936;81;21472;-61
2021/01/18 09:19:06;;;;;;;32.80;11.57;;;;;;;-9.13;73.13;101226.28;1770489;81;21152;-61
2021/01/18 09:21:36;;;;;;;26.60;11.37;;;;;;;-9.09;72.98;101219.13;1766198;81;21133;-61
2021/01/18 09:24:07;;;;;;;30.80;11.83;;;;;;;-9.08;72.90;101218.32;1770473;81;21202;-62
2021/01/18 09:26:35;;;;;;;44.97;14.77;;;;;;;-8.98;72.78;101217.09;1770379;81;21106;-61
2021/01/18 09:29:02;;;;;;;35.33;12.90;;;;;;;-8.91;72.20;101219.19;1770452;81;21165;-61
2021/01/18 09:31:30;;;;;;;39.63;14.13;;;;;;;-8.87;72.02;101215.05;1770367;81;21089;-61
2021/01/18 09:34:10;;;;;;;38.00;13.27;;;;;;;-8.82;71.67;101226.18;1770448;81;21058;-61
2021/01/18 09:36:40;;;;;;;35.13;12.57;;;;;;;-8.81;71.19;101223.16;1771573;79;21921;-62
2021/01/18 09:39:21;;;;;;;32.93;11.43;;;;;;;-8.82;71.07;101222.28;1801971;79;21128;-61
2021/01/18 09:41:52;;;;;;;;;;;;;;;-8.84;71.03;101221.70;1800520;79;21224;-61
2021/01/18 09:44:19;;;;;;;43.00;13.67;;;;;;;-8.86;71.07;101233.31;1802214;79;20218;-62
2021/01/18 09:46:47;;;;;;;34.50;11.97;;;;;;;-8.91;70.80;101234.78;1802279;79;21108;-61
2021/01/18 09:49:28;;;;;;;37.13;12.23;;;;;;;-8.95;70.19;101227.65;1802196;79;21661;-61
2021/01/18 09:51:56;;;;;;;34.87;11.30;;;;;;;-9.04;69.45;101241.05;1802133;79;21158;-62
2021/01/18 09:54:24;;;;;;;40.40;14.00;;;;;;;-9.21;68.79;101239.73;1802265;79;21159;-61
2021/01/18 09:56:53;;;;;;;44.47;15.73;;;;;;;-9.35;69.41;101238.13;1802221;79;21179;-61
2021/01/18 09:59:20;;;;;;;33.00;11.77;;;;;;;-9.37;70.04;101236.73;1764812;80;21161;-61
2021/01/18 10:01:51;;;;;;;39.90;12.63;;;;;;;-9.28;70.82;101248.45;1789821;80;21111;-61
2021/01/18 10:04:22;;;;;;;30.77;11.43;;;;;;;-9.32;70.23;101243.48;1789882;80;21069;-61
2021/01/18 10:06:50;;;;;;;34.10;11.60;;;;;;;-9.43;70.42;101243.30;1789849;79;21071;-61
2021/01/18 10:09:21;;;;;;;31.57;11.57;;;;;;;-9.46;70.51;101244.43;1789180;79;21062;-61
2021/01/18 10:11:49;;;;;;;31.73;10.97;;;;;;;-9.43;70.39;101252.38;1789913;80;21041;-60
2021/01/18 10:14:23;;;;;;;37.90;12.10;;;;;;;-9.39;70.67;101252.64;1790003;80;21473;-62
2021/01/18 10:17:00;;;;;;;38.23;12.73;;;;;;;-9.31;71.03;101251.77;1790225;80;21703;-62
2021/01/18 10:19:28;;;;;;;41.17;13.47;;;;;;;-9.19;71.05;101253.22;1789908;80;21498;-60
2021/01/18 10:21:55;;;;;;;41.50;12.67;;;;;;;-9.06;71.41;101250.47;1789825;80;20974;-59
2021/01/18 10:24:34;;;;;;;31.43;11.20;;;;;;;-8.96;71.27;101247.53;1789922;80;21112;-60
2021/01/18 10:27:07;;;;;;;30.10;11.17;;;;;;;-8.85;71.11;101245.91;1789877;80;21204;-61
2021/01/18 10:29:34;;;;;;;34.07;12.03;;;;;;;-8.85;69.91;101242.89;1789505;80;21156;-61
2021/01/18 10:32:03;;;;;;;28.77;11.57;;;;;;;-8.86;69.93;101238.51;1789936;80;21148;-60
2021/01/18 10:34:34;;;;;;;36.07;12.60;;;;;;;-8.83;69.63;101244.28;1776007;79;21065;-61
2021/01/18 10:37:17;;;;;;;40.37;12.43;;;;;;;-8.92;69.04;101241.70;1771985;80;21144;-62
2021/01/18 10:39:49;;;;;;;26.70;9.07;;;;;;;-8.98;69.52;101237.46;1775191;80;21374;-61
2021/01/18 10:42:19;;;;;;;32.57;11.27;;;;;;;-8.97;69.67;101235.34;1773702;80;21609;-60
2021/01/18 10:44:57;;;;;;;48.10;17.73;;;;;;;-8.98;69.71;101237.46;1770799;80;21196;-62
2021/01/18 10:47:28;;;;;;;40.93;14.47;;;;;;;-8.96;69.91;101251.42;1774479;80;21124;-60
2021/01/18 10:50:00;;;;;;;34.70;13.00;;;;;;;-8.89;69.35;101246.58;1773824;80;21120;-60
2021/01/18 10:52:39;;;;;;;40.87;13.60;;;;;;;-8.86;69.54;101245.43;1769210;80;21382;-61
2021/01/18 10:55:10;;;;;;;32.60;12.90;;;;;;;-8.80;68.95;101250.94;1769160;80;21191;-60
2021/01/18 10:57:41;;;;;;;46.03;16.03;;;;;;;-8.83;68.67;101254.30;1773787;80;21093;-61
2021/01/18 11:00:21;;;;;;;38.03;13.97;;;;;;;-8.80;69.22;101250.55;1776789;80;21144;-61
2021/01/18 11:03:01;;;;;;;28.10;10.80;;;;;;;-8.68;69.45;101253.28;1771969;80;21069;-61
2021/01/18 11:05:36;;;;;;;31.40;11.20;;;;;;;-8.63;68.81;101254.40;1770905;80;21374;-61
2021/01/18 11:08:09;;;;;;;30.90;10.07;;;;;;;-8.62;68.54;101254.00;1774700;80;21160;-61
2021/01/18 11:10:42;;;;;;;31.07;9.83;;;;;;;-8.64;67.44;101257.81;1775359;80;21159;-61
2021/01/18 11:13:17;;;;;;;31.85;10.50;;;;;;;-8.65;67.47;101244.33;1766497;80;21249;-60
2021/01/18 11:15:47;;;;;;;31.10;11.63;;;;;;;-8.61;67.28;101249.29;1752444;80;21112;-61
2021/01/18 11:18:19;;;;;;;36.30;11.67;;;;;;;-8.60;66.41;101244.18;1773579;80;21205;-60
2021/01/18 11:20:54;;;;;;;34.67;12.87;;;;;;;-8.56;66.55;101242.61;1753045;80;21133;-61
2021/01/18 11:23:22;;;;;;;46.13;14.13;;;;;;;-8.58;66.63;101244.24;1774679;80;21144;-57
2021/01/18 11:25:49;;;;;;;47.13;14.13;;;;;;;-8.55;67.56;101250.50;1777073;80;21093;-60
2021/01/18 11:28:17;;;;;;;42.40;16.23;;;;;;;-8.49;67.95;101255.09;1772613;80;21164;-61
2021/01/18 11:30:45;;;;;;;33.37;12.67;;;;;;;-8.45;68.26;101248.32;1773639;80;22135;-59
2021/01/18 11:33:15;;;;;;;35.37;12.83;;;;;;;-8.40;68.66;101249.44;1772483;80;21124;-57
2021/01/18 11:35:44;;;;;;;49.83;15.77;;;;;;;-8.41;68.22;101247.27;1768636;80;21117;-61
2021/01/18 11:38:12;;;;;;;33.07;12.50;;;;;;;-8.46;68.37;101254.34;1772092;80;21132;-57
2021/01/18 11:40:42;;;;;;;37.97;12.37;;;;;;;-8.45;68.64;101255.73;1775975;79;21113;-57